Delta, Kentucky
Current Conditions -  °F | °C
As of 4:56 PM on Wednesday 22 Oct 2014 (Local Time) from KEKQ Reporting Station
Clear Clear  
Wind Chill: 13°   Ceiling: Unl
Heat Index: 13°   Visibility: 10mi
Dew Point:   Wind: 8mph
Humidity: 59%   Direction: 30°NNE
Pressure: 30.25"   Gusts: NA
Location:  36.8129°N, 84.8215°W
Report Text: KEKQ 222056Z AUTO 03007KT 10SM CLR 13/06 A3025 RMK AO2 55004 T01330055 SLP250
Loading
Personal Weather Stations






























Interactive Weather Map
Tropical Storm Tracking
New forecast layout! Learn more

10-Day Weather Forecast

Advertisements
Track Severe Weather on mobile